Aeroporto :
LOGIN :

Iscrizione | Disclaimer

   EN    FR    IT 

 










Sommario :    VFR   VFR Marginale   IFR   IFR Intensivo   IFR Molto Intensivo
Visibilità : 
Base nubi : 
>= 8 km
>= 3000ft
5 / 8 km
1000 / 3000 ft
1500m / 5 km
500 / 1000 ft
800 / 1500m
200 / 500 ft
< 800m
< 200 ft
Simboli :   Temporali  Nebbia  Neve Forte  Precipitazioni Forti  Vento > 20 kt
SIGMETs :   Varie  Temporali  Ghiacco  Turbolenza  Onda orograficha  Ceneri Vulcaniche







- Altitudine del aeroporto : 605 ft
- Codice IATA : BAY


LRBM - Tautii Magheraus

ULTIMO METAR :
  • 211130Z 28010KT CAVOK 10/M00 Q1033

METARs OBSOLETI :
  • 211100Z 28008KT 250V310 CAVOK 09/M00 Q1034
  • 211030Z 27008KT CAVOK 09/00 Q1034
  • 211000Z 27006KT 250V310 CAVOK 08/01 Q1034
  • 210930Z 25005KT 210V290 CAVOK 08/01 Q1034
  • 210900Z 25004KT 210V290 CAVOK 06/00 Q1034
  • 210830Z 23004KT 190V260 CAVOK 06/M00 Q1035

TAF TAF LRBM
Valido dal 21 a 12 ore il 21 a 21 ore UTC


211100Z 2112/2121 28008KT CAVOK
Nessun NOTAM noto per questo aeroporto.



MetMap, La meteo Aeronautica in un colpo d'occhio ! - Copyright ORBIFLY Dicembre 2007 - Disclaimer

ORBIFLY MET'MAP TEAM :

Programmazione e sviluppo : Alexandra Zaïnal
Concezione e sviluppo : Baudouin d'Aumeries
Co-Programmazione e sviluppo : Marc-Olivier Méhu
Supporto tecnico e logistico : Manuel Goepfert
Aiuto per la traduzione : Arnaldo La Scala

Contatto : metmap@orbifly.com




FONTI E CREDITI :

   NOAA